Flight Track Log - Related Links

Times and Time Zones

All times are in EDT time to prevent confusion due to time zone crossing. See the AAY863 flight status page for this flight to view local times or setup timezone preferences in your user account.

Time Position Orientation Groundspeed Altitude Reporting Facility
EDT Latitude Longitude Course Direction KTS MPH feet Rate Location/Type
Sun 05:37:35 PM 41.8683 -91.5633 143° Southeast 250 288 31,000  Level Chicago Center
Sun 05:38:37 PM 41.8150 -91.5192 148° Southeast 233 268 6,700 -10,113 Descending Chicago Center
Sun 05:39:39 PM 41.7242 -91.5453 192° South 284 327 10,100 2,371 Climbing Chicago Center
Sun 05:40:41 PM 41.6428 -91.5742 195° South 297 342 11,600 1,584 Climbing Chicago Center
Sun 05:41:44 PM 41.5464 -91.6006 192° South 345 397 13,400 2,208 Climbing Chicago Center
Sun 05:42:46 PM 41.4461 -91.5281 152° Southeast 378 435 16,200 2,565 Climbing Chicago Center
Sun 05:43:48 PM 41.3700 -91.4375 138° Southeast 370 426 18,700 1,790 Climbing Chicago Center
Sun 05:44:50 PM 41.2914 -91.3442 138° Southeast 376 433 19,900 1,306 Climbing Chicago Center
Sun 05:45:52 PM 41.2086 -91.2453 138° Southeast 395 455 21,400 1,597 Climbing Chicago Center
Sun 05:46:00 PM 40.9263 -90.9097 143° Southeast  Level FlightAware Approximate
Sun 05:46:54 PM 41.1044 -91.1242 139° Southeast 411 473 23,200  Level Chicago Center
Sun 05:47:57 PM 41.0161 -91.0197 138° Southeast 422 486 24,400 1,104 Climbing Chicago Center
Sun 05:48:59 PM 40.9239 -90.9122 139° Southeast 437 503 25,500 871 Climbing Chicago Center
Sun 05:50:01 PM 40.8286 -90.8011 139° Southeast 451 519 26,200 919 Climbing Chicago Center
Sun 05:51:03 PM 40.7292 -90.6872 139° Southeast 467 537 27,400 1,548 Climbing Chicago Center
Sun 05:52:05 PM 40.6122 -90.5531 139° Southeast 469 540 29,400 1,548 Climbing Chicago Center
Sun 05:53:07 PM 40.5181 -90.4442 139° Southeast 459 528 30,600 1,056 Climbing Chicago Center
Sun 05:54:10 PM 40.4225 -90.3361 139° Southeast 459 528 31,600 864 Climbing Chicago Center
Sun 05:55:12 PM 40.3267 -90.2281 139° Southeast 459 528 32,400 677 Climbing Chicago Center
Sun 05:56:14 PM 40.2325 -90.1200 139° Southeast 454 522 33,000 290 Climbing Chicago Center
Sun 05:57:16 PM 40.1158 -89.9878 139° Southeast 462 532 33,000  Level Chicago Center
Sun 05:57:52 PM 40.0583 -89.9219 139° Southeast 462 532 33,000  Level Kansas City Center
Sun 05:58:56 PM 39.9600 -89.8128 140° Southeast 462 532 33,000  Level Kansas City Center
Sun 05:59:57 PM 39.8636 -89.7047 139° Southeast 462 532 33,000  Level Kansas City Center
Sun 06:01:01 PM 39.7642 -89.5986 141° Southeast 462 532 33,000  Level Kansas City Center
Sun 06:02:02 PM 39.6653 -89.4964 141° Southeast 463 533 33,000  Level Kansas City Center
Sun 06:03:03 PM 39.5428 -89.3731 142° Southeast 463 533 33,000  Level Kansas City Center
Sun 06:04:07 PM 39.4397 -89.2658 141° Southeast 463 533 33,000  Level Kansas City Center
Sun 06:05:07 PM 39.3400 -89.1647 142° Southeast 463 533 33,000  Level Kansas City Center
Sun 06:06:09 PM 39.2403 -89.0617 141° Southeast 463 533 33,000  Level Kansas City Center
Sun 06:07:12 PM 39.1258 -88.9481 142° Southeast 461 531 33,000  Level Kansas City Center
Sun 06:08:13 PM 39.0394 -88.8594 141° Southeast 457 526 33,000  Level Kansas City Center
Sun 06:09:17 PM 38.9383 -88.7567 142° Southeast 457 526 33,000  Level Kansas City Center
Sun 06:10:18 PM 38.8150 -88.6325 142° Southeast 466 536 33,000  Level Kansas City Center
Sun 06:11:21 PM 38.7172 -88.5364 143° Southeast 466 536 33,000  Level Kansas City Center
Sun 06:12:22 PM 38.6142 -88.4331 142° Southeast 467 537 33,000  Level Kansas City Center
Sun 06:13:24 PM 38.4903 -88.3125 143° Southeast 467 537 33,000  Level Kansas City Center
Sun 06:14:27 PM 38.3878 -88.2114 142° Southeast 467 537 33,000  Level Kansas City Center
Sun 06:15:29 PM 38.2853 -88.1122 143° Southeast 467 537 33,000  Level Kansas City Center
Sun 06:16:07 PM 38.2258 -88.0528 142° Southeast 465 535 33,000  Level Indianapolis Center
Sun 06:17:09 PM 38.1239 -87.9533 142° Southeast 465 535 33,000  Level Indianapolis Center
Sun 06:18:12 PM 38.0006 -87.8342 143° Southeast 465 535 33,000  Level Indianapolis Center
Sun 06:19:14 PM 37.8964 -87.7408 145° Southeast 464 534 33,000  Level Indianapolis Center
Sun 06:20:16 PM 37.7806 -87.6731 155° Southeast 462 532 33,000  Level Indianapolis Center
Sun 06:21:18 PM 37.6706 -87.6047 154° Southeast 461 531 33,000  Level Indianapolis Center
Sun 06:22:20 PM 37.5336 -87.5225 155° Southeast 461 531 33,000  Level Indianapolis Center
Sun 06:23:22 PM 37.4186 -87.4500 153° Southeast 461 531 33,000  Level Indianapolis Center
Sun 06:24:05 PM 37.3406 -87.4028 154° Southeast 460 529 33,000  Level Memphis Center
Sun 06:25:06 PM 37.2233 -87.3311 154° Southeast 461 531 33,000  Level Memphis Center
Sun 06:26:08 PM 37.1039 -87.2594 154° Southeast 466 536 33,000  Level Memphis Center
Sun 06:27:10 PM 36.9847 -87.1872 154° Southeast 467 537 33,000  Level Memphis Center
Sun 06:28:12 PM 36.8650 -87.1153 154° Southeast 468 539 33,000  Level Memphis Center
Sun 06:29:14 PM 36.7239 -87.0311 154° Southeast 473 544 33,000  Level Memphis Center
Sun 06:30:16 PM 36.6033 -86.9589 154° Southeast 474 545 33,000  Level Memphis Center
Sun 06:31:18 PM 36.4839 -86.8875 154° Southeast 474 545 33,000  Level Memphis Center
Sun 06:32:20 PM 36.3753 -86.8222 154° Southeast 473 544 33,000  Level Memphis Center
Sun 06:33:22 PM 36.2283 -86.7378 155° Southeast 484 557 33,000  Level Memphis Center
Sun 06:34:24 PM 36.1064 -86.6681 155° Southeast 481 554 33,000  Level Memphis Center
Sun 06:35:26 PM 35.9817 -86.6072 158° South 478 550 33,000  Level Memphis Center
Sun 06:36:28 PM 35.8572 -86.5458 158° South 478 550 33,000  Level Memphis Center
Sun 06:37:30 PM 35.7336 -86.4844 158° South 477 549 33,000  Level Memphis Center
Sun 06:38:32 PM 35.6108 -86.4239 158° South 476 548 33,000  Level Memphis Center
Sun 06:39:34 PM 35.4864 -86.3631 158° South 475 547 33,000  Level Memphis Center
Sun 06:40:36 PM 35.3425 -86.2928 158° South 474 545 33,000  Level Memphis Center
Sun 06:41:38 PM 35.2181 -86.2381 160° South 474 545 33,000  Level Memphis Center
Sun 06:42:39 PM 35.1000 -86.1892 161° South 474 545 33,000  Level Memphis Center
Sun 06:43:41 PM 34.9761 -86.1356 160° South 474 545 33,000  Level Memphis Center
Sun 06:44:43 PM 34.8544 -86.0756 158° South 474 545 33,000  Level Memphis Center
Sun 06:45:45 PM 34.7231 -85.9961 154° Southeast 475 547 33,000  Level Memphis Center
Sun 06:46:47 PM 34.5883 -85.9136 153° Southeast 487 560 33,000  Level Memphis Center
Sun 06:47:38 PM 34.5047 -85.8586 152° Southeast 490 564 33,000  Level Atlanta Center
Sun 06:48:40 PM 34.3667 -85.7881 157° South 474 545 33,000  Level Atlanta Center
Sun 06:49:43 PM 34.2425 -85.7436 164° South 470 541 33,000  Level Atlanta Center
Sun 06:50:45 PM 34.1178 -85.6944 162° South 470 541 33,000  Level Atlanta Center
Sun 06:51:47 PM 33.9942 -85.6472 162° South 471 542 33,000  Level Atlanta Center
Sun 06:52:49 PM 33.8431 -85.5906 163° South 471 542 33,000  Level Atlanta Center
Sun 06:53:51 PM 33.7181 -85.5425 162° South 474 545 33,000  Level Atlanta Center
Sun 06:54:53 PM 33.5956 -85.4958 162° South 464 534 33,000  Level Atlanta Center
Sun 06:55:55 PM 33.4717 -85.4486 162° South 466 536 33,000  Level Atlanta Center
Sun 06:56:58 PM 33.3497 -85.4019 162° South 465 535 33,000  Level Atlanta Center
Sun 06:58:00 PM 33.2014 -85.3464 163° South 467 537 33,000  Level Atlanta Center
Sun 06:59:02 PM 33.0789 -85.2983 162° South 468 539 33,000  Level Atlanta Center
Sun 07:00:05 PM 32.9453 -85.2486 163° South 467 537 33,000  Level Atlanta Center
Sun 07:01:07 PM 32.8200 -85.2003 162° South 469 540 33,000  Level Atlanta Center
Sun 07:02:09 PM 32.6944 -85.1542 163° South 471 542 33,000  Level Atlanta Center
Sun 07:03:11 PM 32.5686 -85.1067 162° South 472 543 33,000  Level Atlanta Center
Sun 07:04:14 PM 32.4428 -85.0600 163° South 471 542 33,000  Level Atlanta Center
Sun 07:05:16 PM 32.2906 -85.0044 163° South 472 543 33,000  Level Atlanta Center
Sun 07:06:18 PM 32.1706 -84.9600 163° South 472 543 33,000  Level Atlanta Center
Sun 07:07:20 PM 32.0439 -84.9139 163° South 474 545 33,000  Level Atlanta Center
Sun 07:08:22 PM 31.9178 -84.8675 163° South 474 545 33,000  Level Atlanta Center
Sun 07:09:25 PM 31.7686 -84.8125 163° South 473 544 33,000  Level Atlanta Center
Sun 07:10:27 PM 31.6422 -84.7669 163° South 473 544 33,000 -145 Level Atlanta Center
Sun 07:11:29 PM 31.5178 -84.7203 162° South 473 544 32,700 -387 Descending Atlanta Center
Sun 07:12:31 PM 31.3939 -84.6764 163° South 472 543 32,200 -532 Descending Atlanta Center
Sun 07:13:33 PM 31.2683 -84.6358 165° South 471 542 31,600 -563 Descending Atlanta Center
Sun 07:14:39 PM 31.1044 -84.6372 180° South 474 545 31,000 -286 Descending Jacksonville Center
Sun 07:15:39 PM 30.9839 -84.5911 162° South 455 524 31,000  Level Jacksonville Center
Sun 07:16:39 PM 30.8658 -84.5167 152° Southeast 455 524 31,000  Level Jacksonville Center
Sun 07:17:39 PM 30.7519 -84.4469 152° Southeast 466 536 31,000  Level Jacksonville Center
Sun 07:18:39 PM 30.6317 -84.3772 153° Southeast 472 543 31,000 -50 Level Jacksonville Center
Sun 07:19:39 PM 30.5300 -84.3131 151° Southeast 472 543 30,900 -50 Descending Jacksonville Center
Sun 07:20:39 PM 30.4117 -84.2439 153° Southeast 472 543 30,900  Level Jacksonville Center
Sun 07:21:39 PM 30.2975 -84.1772 153° Southeast 467 537 30,900 50 Level Jacksonville Center
Sun 07:22:39 PM 30.1772 -84.1061 153° Southeast 467 537 31,000  Climbing Jacksonville Center
Sun 07:23:39 PM 30.0631 -84.0372 152° Southeast 467 537 30,900  Descending Jacksonville Center
Sun 07:24:39 PM 29.9425 -83.9689 154° Southeast 467 537 31,000 50 Climbing Jacksonville Center
Sun 07:25:39 PM 29.8242 -83.9006 153° Southeast 467 537 31,000  Level Jacksonville Center
Sun 07:26:39 PM 29.7097 -83.8275 151° Southeast 467 537 31,000  Level Jacksonville Center
Sun 07:27:39 PM 29.5956 -83.7525 150° Southeast 472 543 31,000 -450 Level Jacksonville Center
Sun 07:28:39 PM 29.4769 -83.6775 151° Southeast 472 543 30,100 -1,200 Descending Jacksonville Center
Sun 07:29:39 PM 29.3625 -83.6050 151° Southeast 472 543 28,600 -1,650 Descending Jacksonville Center
Sun 07:30:39 PM 29.2336 -83.5231 151° Southeast 479 551 26,800 -1,650 Descending Jacksonville Center
Sun 07:31:39 PM 29.1256 -83.4511 150° Southeast 474 545 25,300 -1,550 Descending Jacksonville Center
Sun 07:32:39 PM 29.0150 -83.3817 151° Southeast 459 528 23,700 -1,800 Descending Jacksonville Center
Sun 07:33:39 PM 28.9067 -83.3125 151° Southeast 454 522 21,700 -2,050 Descending Jacksonville Center
Sun 07:34:39 PM 28.7944 -83.2408 151° Southeast 454 522 19,600 -2,150 Descending Jacksonville Center
Sun 07:35:39 PM 28.6922 -83.1742 150° Southeast 442 509 17,400 -2,150 Descending Jacksonville Center
Sun 07:36:39 PM 28.5942 -83.1147 152° Southeast 427 491 15,300 -1,925 Descending Jacksonville Center
Sun 07:37:53 PM 28.4833 -83.0333 147° Southeast 398 458 13,100 -1,671 Descending Tampa TRACON
Sun 07:38:59 PM 28.3667 -82.9667 153° Southeast 383 441 11,400 -1,320 Descending Tampa TRACON
Sun 07:39:33 PM 28.3372 -82.9378 139° Southeast 376 433 10,900 -1,063 Descending Miami Center
Sun 07:40:35 PM 28.2739 -82.8622 134° Southeast 339 390 9,700 -1,694 Descending Miami Center
Sun 07:41:37 PM 28.2172 -82.7956 134° Southeast 314 361 7,400 -2,488 Descending Miami Center
Sun 07:42:38 PM 28.1475 -82.7242 138° Southeast 288 331 4,600 -2,341 Descending Miami Center
Sun 07:43:40 PM 28.0822 -82.6856 152° Southeast 275 316 2,600 -1,317 Descending Miami Center
Sun 07:44:41 PM 28.0261 -82.6606 159° South 225 259 1,900 -634 Descending Miami Center
Sun 07:45:43 PM 27.9878 -82.6711 194° South 167 192 1,300 -634 Descending Miami Center
Sun 07:46:44 PM 27.9597 -82.6953 217° Southwest 143 165 600 -488 Descending Miami Center
Sun 07:47:46 PM 27.9106 -82.6969 182° South 154 177 300 -290 Descending Miami Center

Login

Don't have an account? Register now (free) for customized features, flight alerts, and more!